createdAt,value
2022-07-27T00:02:12.617Z,1.48
2022-07-27T00:04:45.757Z,1.30
2022-07-27T00:07:25.632Z,1.40
2022-07-27T00:10:05.611Z,1.88
2022-07-27T00:12:38.819Z,1.80
2022-07-27T00:15:13.692Z,1.65
2022-07-27T00:17:40.353Z,1.75
2022-07-27T00:20:13.625Z,2.13
2022-07-27T00:22:46.836Z,1.60
2022-07-27T00:25:19.641Z,1.95
2022-07-27T00:27:52.705Z,1.60
2022-07-27T00:30:19.482Z,1.60
2022-07-27T00:32:52.809Z,1.98
2022-07-27T00:35:20.070Z,1.98
2022-07-27T00:37:53.638Z,1.88
2022-07-27T00:40:20.545Z,1.88
2022-07-27T00:42:53.659Z,1.88
2022-07-27T00:45:20.483Z,1.88
2022-07-27T00:47:55.184Z,1.48
2022-07-27T00:50:22.263Z,1.80
2022-07-27T00:52:55.678Z,1.70
2022-07-27T00:55:29.606Z,1.90
2022-07-27T00:58:02.633Z,1.60
2022-07-27T01:00:29.467Z,1.92
2022-07-27T01:03:09.192Z,1.60
2022-07-27T01:05:43.979Z,2.30
2022-07-27T01:08:23.615Z,1.83
2022-07-27T01:10:50.790Z,2.17
2022-07-27T01:13:24.617Z,2.13
2022-07-27T01:15:52.327Z,2.03
2022-07-27T01:18:37.710Z,2.17
2022-07-27T01:21:07.514Z,1.85
2022-07-27T01:23:41.658Z,2.00
2022-07-27T01:26:08.437Z,2.08
2022-07-27T01:28:41.653Z,2.03
2022-07-27T01:31:08.521Z,1.80
2022-07-27T01:33:41.624Z,2.00
2022-07-27T01:36:08.337Z,1.80
2022-07-27T01:38:41.617Z,1.67
2022-07-27T01:41:08.455Z,1.90
2022-07-27T01:43:41.650Z,2.00
2022-07-27T01:46:08.556Z,2.08
2022-07-27T01:48:35.337Z,1.80
2022-07-27T01:51:08.830Z,1.83
2022-07-27T01:53:35.530Z,2.35
2022-07-27T01:56:08.624Z,1.67
2022-07-27T01:58:36.441Z,1.83
2022-07-27T02:01:09.850Z,1.70
2022-07-27T02:03:37.237Z,2.10
2022-07-27T02:06:11.618Z,1.80
2022-07-27T02:08:38.541Z,1.90
2022-07-27T02:11:30.611Z,1.75
2022-07-27T02:13:57.341Z,1.63
2022-07-27T02:16:30.683Z,1.95
2022-07-27T02:18:58.094Z,1.70
2022-07-27T02:21:31.850Z,1.95
2022-07-27T02:23:58.563Z,1.90
2022-07-27T02:26:32.610Z,1.80
2022-07-27T02:28:59.633Z,2.03
2022-07-27T02:31:33.636Z,2.10
2022-07-27T02:34:00.553Z,2.00
2022-07-27T02:36:35.636Z,1.65
2022-07-27T02:39:02.497Z,2.30
2022-07-27T02:41:29.342Z,2.17
2022-07-27T02:44:02.621Z,2.00
2022-07-27T02:46:29.441Z,2.15
2022-07-27T02:49:03.058Z,2.60
2022-07-27T02:51:29.866Z,1.90
2022-07-27T02:54:02.617Z,1.88
2022-07-27T02:56:35.770Z,2.10
2022-07-27T02:59:02.618Z,2.08
2022-07-27T03:01:35.683Z,1.85
2022-07-27T03:04:08.637Z,2.35
2022-07-27T03:06:41.872Z,2.25
2022-07-27T03:09:16.990Z,2.40
2022-07-27T03:11:50.586Z,2.20
2022-07-27T03:14:23.841Z,2.10
2022-07-27T03:16:50.516Z,2.10
2022-07-27T03:19:28.308Z,1.83
2022-07-27T03:21:56.777Z,2.10
2022-07-27T03:24:29.618Z,2.10
2022-07-27T03:26:56.565Z,2.30
2022-07-27T03:29:23.298Z,2.38
2022-07-27T03:31:56.593Z,2.55
2022-07-27T03:34:30.624Z,2.50
2022-07-27T03:36:57.342Z,2.20
2022-07-27T03:39:30.681Z,1.98
2022-07-27T03:41:57.408Z,2.30
2022-07-27T03:44:30.616Z,2.25
2022-07-27T03:47:03.820Z,2.70
2022-07-27T03:49:36.603Z,2.65
2022-07-27T03:52:11.979Z,2.40
2022-07-27T03:54:42.483Z,2.45
2022-07-27T03:57:15.804Z,2.33
2022-07-27T03:59:48.777Z,2.58
2022-07-27T04:02:21.664Z,2.40
2022-07-27T04:04:48.499Z,2.53
2022-07-27T04:07:35.622Z,2.17
2022-07-27T04:10:10.579Z,2.28
2022-07-27T04:12:38.518Z,3.25
2022-07-27T04:15:13.673Z,2.70
2022-07-27T04:17:56.388Z,2.60
2022-07-27T04:20:31.605Z,2.55
2022-07-27T04:22:58.845Z,2.58
2022-07-27T04:25:32.643Z,3.15
2022-07-27T04:27:59.685Z,2.47
2022-07-27T04:30:32.648Z,2.67
2022-07-27T04:33:06.627Z,2.60
2022-07-27T04:35:39.564Z,3.08
2022-07-27T04:38:06.566Z,2.72
2022-07-27T04:40:40.585Z,2.35
2022-07-27T04:43:07.670Z,2.85
2022-07-27T04:45:41.850Z,2.55
2022-07-27T04:48:10.499Z,3.28
2022-07-27T04:50:51.609Z,2.60
2022-07-27T04:53:18.479Z,2.92
2022-07-27T04:55:53.588Z,2.85
2022-07-27T04:58:20.521Z,3.45
2022-07-27T05:00:53.637Z,3.03
2022-07-27T05:03:27.599Z,3.63
2022-07-27T05:06:14.632Z,3.83
2022-07-27T05:08:42.832Z,3.58
2022-07-27T05:11:09.859Z,3.55
2022-07-27T05:13:46.588Z,3.67
2022-07-27T05:16:13.618Z,3.80
2022-07-27T05:18:47.759Z,3.85
2022-07-27T05:21:14.562Z,4.10
2022-07-27T05:23:48.610Z,3.95
2022-07-27T05:26:15.311Z,3.33
2022-07-27T05:28:48.581Z,4.25
2022-07-27T05:31:15.379Z,4.00
2022-07-27T05:33:51.332Z,4.10
2022-07-27T05:36:20.407Z,4.05
2022-07-27T05:38:47.100Z,4.32
2022-07-27T05:41:20.567Z,4.18
2022-07-27T05:43:47.766Z,4.15
2022-07-27T05:46:20.654Z,3.55
2022-07-27T05:48:53.684Z,4.43
2022-07-27T05:51:26.619Z,4.47
2022-07-27T05:53:59.736Z,4.00
2022-07-27T05:56:27.632Z,5.00
2022-07-27T05:58:54.598Z,4.88
2022-07-27T06:01:29.052Z,5.95
2022-07-27T06:04:02.698Z,5.55
2022-07-27T06:07:07.591Z,5.53
2022-07-27T06:09:40.585Z,6.00
2022-07-27T06:12:14.600Z,6.22
2022-07-27T06:14:41.300Z,5.45
2022-07-27T06:17:14.764Z,5.15
2022-07-27T06:19:41.679Z,6.50
2022-07-27T06:22:16.063Z,6.18
2022-07-27T06:24:42.788Z,5.50
2022-07-27T06:27:15.587Z,6.30
2022-07-27T06:29:42.331Z,5.32
2022-07-27T06:32:15.566Z,4.97
2022-07-27T06:34:42.580Z,5.70
2022-07-27T06:37:16.563Z,5.93
2022-07-27T06:39:46.827Z,5.70
2022-07-27T06:42:21.974Z,6.20
2022-07-27T06:44:48.768Z,5.97
2022-07-27T06:47:23.849Z,5.55
2022-07-27T06:49:52.991Z,5.53
2022-07-27T06:52:26.578Z,6.07
2022-07-27T06:54:53.351Z,5.90
2022-07-27T06:57:26.571Z,5.30
2022-07-27T06:59:53.780Z,5.50
2022-07-27T07:02:26.584Z,5.07
2022-07-27T07:04:53.465Z,5.40
2022-07-27T07:07:33.615Z,6.10
2022-07-27T07:10:13.581Z,5.10
2022-07-27T07:12:40.648Z,5.53
2022-07-27T07:15:15.599Z,5.72
2022-07-27T07:17:42.775Z,5.60
2022-07-27T07:20:16.617Z,6.05
2022-07-27T07:22:43.496Z,5.90
2022-07-27T07:25:16.755Z,6.50
2022-07-27T07:27:43.445Z,6.28
2022-07-27T07:30:11.093Z,6.25
2022-07-27T07:32:45.566Z,6.57
2022-07-27T07:35:19.585Z,6.70
2022-07-27T07:37:50.146Z,8.80
2022-07-27T07:40:42.610Z,8.20
2022-07-27T07:43:11.780Z,8.90
2022-07-27T07:45:50.797Z,10.55
2022-07-27T07:48:19.587Z,10.38
2022-07-27T07:50:53.679Z,10.30
2022-07-27T07:53:24.430Z,10.60
2022-07-27T07:55:59.737Z,10.40
2022-07-27T07:58:27.469Z,12.05
2022-07-27T08:01:01.565Z,8.43
2022-07-27T08:03:28.368Z,7.15
2022-07-27T08:06:16.030Z,6.55
2022-07-27T08:08:42.758Z,6.38
2022-07-27T08:11:16.626Z,6.80
2022-07-27T08:13:43.532Z,5.70
2022-07-27T08:16:10.396Z,7.43
2022-07-27T08:18:43.567Z,6.40
2022-07-27T08:21:10.486Z,7.32
2022-07-27T08:23:44.715Z,7.38
2022-07-27T08:26:11.567Z,7.40
2022-07-27T08:28:44.562Z,7.55
2022-07-27T08:31:14.042Z,7.75
2022-07-27T08:33:48.883Z,7.88
2022-07-27T08:36:15.556Z,8.23
2022-07-27T08:38:48.580Z,7.65
2022-07-27T08:41:16.849Z,7.90
2022-07-27T08:43:53.550Z,8.52
2022-07-27T08:46:21.831Z,7.90
2022-07-27T08:48:55.614Z,8.75
2022-07-27T08:51:24.763Z,8.50
2022-07-27T08:53:59.574Z,9.57
2022-07-27T08:56:33.571Z,8.02
2022-07-27T08:59:00.289Z,9.15
2022-07-27T09:01:33.628Z,10.73
2022-07-27T09:04:00.521Z,11.32
2022-07-27T09:06:54.578Z,11.32
2022-07-27T09:09:22.732Z,9.88
2022-07-27T09:12:14.750Z,10.98
2022-07-27T09:14:42.275Z,11.18
2022-07-27T09:17:49.851Z,11.68
2022-07-27T09:22:52.669Z,11.20
2022-07-27T09:26:02.418Z,12.20
2022-07-27T09:28:36.609Z,10.43
2022-07-27T09:31:11.487Z,10.93
2022-07-27T09:33:56.596Z,11.82
2022-07-27T09:36:31.560Z,11.43
2022-07-27T09:39:13.859Z,11.98
2022-07-27T09:41:46.292Z,10.05
2022-07-27T09:44:31.895Z,11.68
2022-07-27T09:47:06.574Z,11.05
2022-07-27T09:49:35.157Z,10.80
2022-07-27T09:52:10.559Z,8.00
2022-07-27T09:54:53.538Z,10.03
2022-07-27T09:57:20.459Z,11.45
2022-07-27T09:59:53.544Z,10.32
2022-07-27T10:02:27.609Z,11.15
2022-07-27T10:05:01.649Z,9.40
2022-07-27T10:07:35.488Z,10.85
2022-07-27T10:10:09.564Z,10.13
2022-07-27T10:12:36.416Z,9.13
2022-07-27T10:15:10.738Z,8.05
2022-07-27T10:17:39.127Z,10.70
2022-07-27T10:20:17.543Z,10.38
2022-07-27T10:23:07.527Z,9.20
2022-07-27T10:25:41.542Z,8.50
2022-07-27T10:28:21.544Z,10.20
2022-07-27T10:30:54.940Z,9.73
2022-07-27T10:33:44.695Z,9.63
2022-07-27T10:36:45.570Z,9.23
2022-07-27T10:39:25.086Z,9.13
2022-07-27T10:41:58.560Z,9.40
2022-07-27T10:44:29.423Z,8.70
2022-07-27T10:47:05.545Z,9.43
2022-07-27T10:49:41.426Z,9.40
2022-07-27T10:52:47.540Z,8.60
2022-07-27T10:55:39.559Z,8.95
2022-07-27T10:58:09.337Z,10.07
2022-07-27T11:00:57.646Z,8.48
2022-07-27T11:03:26.806Z,8.57
2022-07-27T11:12:01.537Z,8.27
2022-07-27T11:14:36.627Z,8.77
2022-07-27T11:17:32.163Z,8.85
2022-07-27T11:20:06.529Z,8.30
2022-07-27T11:23:26.685Z,8.63
2022-07-27T11:25:32.581Z,8.75
2022-07-27T11:28:07.350Z,7.45
2022-07-27T11:30:40.577Z,8.25
2022-07-27T11:33:08.237Z,8.70
2022-07-27T11:35:41.546Z,8.38
2022-07-27T11:38:08.682Z,9.48
2022-07-27T11:40:57.124Z,8.20
2022-07-27T11:43:45.250Z,8.95
2022-07-27T11:46:30.666Z,10.07
2022-07-27T11:49:07.134Z,7.32
2022-07-27T11:52:00.587Z,8.13
2022-07-27T11:54:29.786Z,7.80
2022-07-27T11:57:08.552Z,8.80
2022-07-27T11:59:46.540Z,7.30
2022-07-27T12:02:17.913Z,9.50
2022-07-27T12:04:54.399Z,7.50
2022-07-27T12:07:48.570Z,7.00
2022-07-27T12:10:16.489Z,7.40
2022-07-27T12:12:55.552Z,6.18
2022-07-27T12:15:44.682Z,7.22
2022-07-27T12:18:15.557Z,6.28
2022-07-27T12:20:42.317Z,6.95
2022-07-27T12:23:09.401Z,7.47
2022-07-27T12:25:43.571Z,6.93
2022-07-27T12:28:18.158Z,7.07
2022-07-27T12:30:56.611Z,7.18
2022-07-27T12:33:35.853Z,7.03
2022-07-27T12:36:11.562Z,6.15
2022-07-27T12:38:50.732Z,6.65
2022-07-27T12:41:36.520Z,6.63
2022-07-27T12:44:23.538Z,5.55
2022-07-27T12:47:00.554Z,5.78
2022-07-27T12:49:46.334Z,5.82
2022-07-27T12:52:13.358Z,5.20
2022-07-27T12:54:46.546Z,5.78
2022-07-27T12:57:13.366Z,5.53
2022-07-27T12:59:48.547Z,5.65
2022-07-27T13:02:15.928Z,6.00
2022-07-27T13:04:49.528Z,5.93
2022-07-27T13:07:36.569Z,5.25
2022-07-27T13:10:12.527Z,5.35
2022-07-27T13:12:39.320Z,4.88
2022-07-27T13:15:14.550Z,4.50
2022-07-27T13:17:41.573Z,4.90
2022-07-27T13:20:17.532Z,5.00
2022-07-27T13:22:45.414Z,5.20
2022-07-27T13:25:15.661Z,5.78
2022-07-27T13:27:51.551Z,5.30
2022-07-27T13:30:19.032Z,4.90
2022-07-27T13:32:48.880Z,5.47
2022-07-27T13:35:23.518Z,4.78
2022-07-27T13:37:50.222Z,5.13
2022-07-27T13:40:23.547Z,4.28
2022-07-27T13:42:50.242Z,3.72
2022-07-27T13:45:17.194Z,3.17
2022-07-27T13:47:50.539Z,3.50
2022-07-27T13:50:19.413Z,4.05
2022-07-27T13:52:56.550Z,2.58
2022-07-27T13:55:27.970Z,2.25
2022-07-27T13:58:01.543Z,2.80
2022-07-27T14:00:28.343Z,2.67
2022-07-27T14:03:01.583Z,3.08
2022-07-27T14:05:28.451Z,3.00
2022-07-27T14:08:17.524Z,2.83
2022-07-27T14:10:44.451Z,2.95
2022-07-27T14:13:19.548Z,2.35
2022-07-27T14:15:53.130Z,2.97
2022-07-27T14:18:30.546Z,2.30
2022-07-27T14:21:06.590Z,2.50
2022-07-27T14:26:08.543Z,2.58
2022-07-27T14:28:43.575Z,2.80
2022-07-27T14:31:18.661Z,2.80
2022-07-27T14:33:46.922Z,2.70
2022-07-27T14:36:20.547Z,2.80
2022-07-27T14:38:54.894Z,2.75
2022-07-27T14:41:21.638Z,2.47
2022-07-27T14:43:48.328Z,2.50
2022-07-27T14:46:21.604Z,2.80
2022-07-27T14:49:05.856Z,3.28
2022-07-27T14:51:39.579Z,2.88
2022-07-27T14:54:06.612Z,3.00
2022-07-27T14:56:39.617Z,3.45
2022-07-27T14:59:12.749Z,3.00
2022-07-27T15:01:40.868Z,3.00
2022-07-27T15:04:14.539Z,2.97
2022-07-27T15:06:41.613Z,2.85
2022-07-27T15:09:21.591Z,3.20
2022-07-27T15:12:01.526Z,3.00
2022-07-27T15:14:28.539Z,3.38
2022-07-27T15:16:56.062Z,2.85
2022-07-27T15:19:29.566Z,3.38
2022-07-27T15:21:56.496Z,3.05
2022-07-27T15:24:31.055Z,2.75
2022-07-27T15:29:32.536Z,3.22
2022-07-27T15:31:59.514Z,2.70
2022-07-27T15:34:33.557Z,2.58
2022-07-27T15:37:00.262Z,2.22
2022-07-27T15:39:33.532Z,2.63
2022-07-27T15:42:06.531Z,2.97
2022-07-27T15:44:33.739Z,2.83
2022-07-27T15:47:07.585Z,2.67
2022-07-27T15:49:34.504Z,2.92
2022-07-27T15:52:09.049Z,2.88
2022-07-27T15:54:42.170Z,3.05
2022-07-27T15:59:51.513Z,3.05
2022-07-27T16:02:24.635Z,3.00
2022-07-27T16:04:58.520Z,2.60
2022-07-27T16:07:41.736Z,2.58
2022-07-27T16:10:22.525Z,2.50
2022-07-27T16:12:49.837Z,3.13
2022-07-27T16:15:23.545Z,3.20
2022-07-27T16:17:56.534Z,3.03
2022-07-27T16:20:29.556Z,2.45
2022-07-27T16:22:56.195Z,1.98
2022-07-27T16:25:53.307Z,1.60
2022-07-27T16:28:16.300Z,1.65
2022-07-27T16:30:49.529Z,1.80
2022-07-27T16:33:16.518Z,1.80
2022-07-27T16:35:44.191Z,1.67
2022-07-27T16:38:18.512Z,1.80
2022-07-27T16:40:45.205Z,1.55
2022-07-27T16:43:18.579Z,1.40
2022-07-27T16:45:45.530Z,1.80
2022-07-27T16:48:19.572Z,2.00
2022-07-27T16:50:46.435Z,1.95
2022-07-27T16:53:13.126Z,1.50
2022-07-27T16:55:46.540Z,1.55
2022-07-27T16:58:13.491Z,1.63
2022-07-27T17:00:46.536Z,2.10
2022-07-27T17:03:13.226Z,2.30
2022-07-27T17:05:40.058Z,2.03
2022-07-27T17:08:34.737Z,1.70
2022-07-27T17:11:02.363Z,1.92
2022-07-27T17:13:49.220Z,1.42
2022-07-27T17:16:16.966Z,2.70
2022-07-27T17:18:50.567Z,2.10
2022-07-27T17:21:17.340Z,1.70
2022-07-27T17:23:51.530Z,2.15
2022-07-27T17:26:18.333Z,1.85
2022-07-27T17:28:51.527Z,1.70
2022-07-27T17:31:21.082Z,2.00
2022-07-27T17:33:54.591Z,1.95
2022-07-27T17:36:28.606Z,2.92
2022-07-27T17:38:55.574Z,2.47
2022-07-27T17:41:29.534Z,1.90
2022-07-27T17:43:56.697Z,2.08
2022-07-27T17:46:25.013Z,1.77
2022-07-27T17:48:59.604Z,1.80
2022-07-27T17:51:32.595Z,2.00
2022-07-27T17:54:00.797Z,1.60
2022-07-27T17:56:34.505Z,1.88
2022-07-27T17:59:20.480Z,1.60
2022-07-27T18:01:54.805Z,1.63
2022-07-27T18:04:21.678Z,1.50
2022-07-27T18:06:54.640Z,1.65
2022-07-27T18:09:28.053Z,1.60
2022-07-27T18:12:01.580Z,1.48
2022-07-27T18:14:28.489Z,1.83
2022-07-27T18:17:03.545Z,1.88
2022-07-27T18:19:30.369Z,1.48
2022-07-27T18:21:57.459Z,1.52
2022-07-27T18:24:30.541Z,1.65
2022-07-27T18:26:59.471Z,1.90
2022-07-27T18:29:26.227Z,1.92
2022-07-27T18:31:59.517Z,1.90
2022-07-27T18:34:26.294Z,2.10
2022-07-27T18:36:59.725Z,1.95
2022-07-27T18:39:33.988Z,2.10
2022-07-27T18:42:10.498Z,2.10
2022-07-27T18:44:43.534Z,1.77
2022-07-27T18:47:16.606Z,2.20
2022-07-27T18:49:49.502Z,1.75
2022-07-27T18:52:16.239Z,2.00
2022-07-27T18:54:50.638Z,1.92
2022-07-27T18:57:17.755Z,2.03
2022-07-27T18:59:47.378Z,1.83
2022-07-27T19:02:23.600Z,2.22
2022-07-27T19:04:50.781Z,1.63
2022-07-27T19:07:31.508Z,1.98
2022-07-27T19:10:06.500Z,1.45
2022-07-27T19:12:39.499Z,1.73
2022-07-27T19:15:14.502Z,1.83
2022-07-27T19:17:47.575Z,1.65
2022-07-27T19:20:24.518Z,1.90
2022-07-27T19:22:51.548Z,1.77
2022-07-27T19:25:25.543Z,1.90
2022-07-27T19:27:52.694Z,1.80
2022-07-27T19:30:25.524Z,1.60
2022-07-27T19:32:58.534Z,1.92
2022-07-27T19:35:31.491Z,1.80
2022-07-27T19:37:58.221Z,2.10
2022-07-27T19:40:46.747Z,1.60
2022-07-27T19:43:15.254Z,1.90
2022-07-27T19:45:49.519Z,1.70
2022-07-27T19:48:16.279Z,1.35
2022-07-27T19:50:49.554Z,1.38
2022-07-27T19:53:16.282Z,1.70
2022-07-27T19:55:49.525Z,1.70
2022-07-27T19:58:23.733Z,1.80
2022-07-27T20:00:50.642Z,1.90
2022-07-27T20:03:27.562Z,1.67
2022-07-27T20:05:54.570Z,1.58
2022-07-27T20:08:28.500Z,1.70
2022-07-27T20:11:09.493Z,2.00
2022-07-27T20:13:42.553Z,1.90
2022-07-27T20:16:15.624Z,1.77
2022-07-27T20:18:42.392Z,1.77
2022-07-27T20:21:22.803Z,1.83
2022-07-27T20:24:00.492Z,1.95
2022-07-27T20:26:33.785Z,2.00
2022-07-27T20:29:07.503Z,1.92
2022-07-27T20:31:34.324Z,1.98
2022-07-27T20:34:01.195Z,1.92
2022-07-27T20:36:34.484Z,1.70
2022-07-27T20:39:01.270Z,1.60
2022-07-27T20:41:34.930Z,1.90
2022-07-27T20:44:01.866Z,2.00
2022-07-27T20:46:35.543Z,1.90
2022-07-27T20:49:02.395Z,2.55
2022-07-27T20:51:29.160Z,2.25
2022-07-27T20:54:03.523Z,2.08
2022-07-27T20:56:30.201Z,1.67
2022-07-27T20:59:03.478Z,1.70
2022-07-27T21:01:35.698Z,2.00
2022-07-27T21:04:09.486Z,1.80
2022-07-27T21:06:36.360Z,2.33
2022-07-27T21:09:16.807Z,1.80
2022-07-27T21:11:50.586Z,1.90
2022-07-27T21:14:24.497Z,1.80
2022-07-27T21:16:51.473Z,1.65
2022-07-27T21:19:27.480Z,1.92
2022-07-27T21:21:54.259Z,2.15
2022-07-27T21:24:29.516Z,1.80
2022-07-27T21:26:58.707Z,2.25
2022-07-27T21:29:34.554Z,1.85
2022-07-27T21:32:02.093Z,2.10
2022-07-27T21:34:28.984Z,2.17
2022-07-27T21:37:02.487Z,1.75
2022-07-27T21:39:29.575Z,1.90
2022-07-27T21:42:02.703Z,2.15
2022-07-27T21:44:29.965Z,2.13
2022-07-27T21:47:03.501Z,1.98
2022-07-27T21:49:36.478Z,1.88
2022-07-27T21:52:09.487Z,1.52
2022-07-27T21:54:42.496Z,1.90
2022-07-27T21:57:09.153Z,1.70
2022-07-27T21:59:35.826Z,1.40
2022-07-27T22:02:09.473Z,1.63
2022-07-27T22:04:36.309Z,1.92
2022-07-27T22:07:19.198Z,1.75
2022-07-27T22:09:59.457Z,1.60
2022-07-27T22:12:32.781Z,1.38
2022-07-27T22:15:06.531Z,1.80
2022-07-27T22:17:33.441Z,1.85
2022-07-27T22:20:06.629Z,1.90
2022-07-27T22:22:39.457Z,1.77
2022-07-27T22:25:06.497Z,2.20
2022-07-27T22:27:39.494Z,1.48
2022-07-27T22:30:07.104Z,1.75
2022-07-27T22:32:41.476Z,1.65
2022-07-27T22:35:08.702Z,1.48
2022-07-27T22:37:42.470Z,1.85
2022-07-27T22:40:09.712Z,1.70
2022-07-27T22:42:43.977Z,1.50
2022-07-27T22:45:11.495Z,1.95
2022-07-27T22:47:38.258Z,1.88
2022-07-27T22:50:14.009Z,2.00
2022-07-27T22:52:51.496Z,2.05
2022-07-27T22:55:18.248Z,2.17
2022-07-27T22:57:53.456Z,1.77
2022-07-27T23:00:26.477Z,1.77
2022-07-27T23:02:53.239Z,1.83
2022-07-27T23:05:27.700Z,2.13
2022-07-27T23:08:14.483Z,2.25
2022-07-27T23:10:47.045Z,1.85
2022-07-27T23:13:22.618Z,1.80
2022-07-27T23:15:50.074Z,2.30
2022-07-27T23:18:23.498Z,1.98
2022-07-27T23:20:50.734Z,2.42
2022-07-27T23:23:26.026Z,2.00
2022-07-27T23:25:54.584Z,2.15
2022-07-27T23:28:28.462Z,2.42
2022-07-27T23:30:55.687Z,2.25
2022-07-27T23:33:29.452Z,2.30
2022-07-27T23:35:56.538Z,2.58
2022-07-27T23:38:29.455Z,2.20
2022-07-27T23:41:02.588Z,2.58
2022-07-27T23:43:35.476Z,2.15
2022-07-27T23:46:02.949Z,2.42
2022-07-27T23:48:36.531Z,2.42
2022-07-27T23:51:03.635Z,2.33
2022-07-27T23:53:36.448Z,2.22
2022-07-27T23:56:03.201Z,2.28
2022-07-27T23:58:36.620Z,2.40
